Highest pressure

Not for real navigation. The accuracy of this data is not assured See disclaimer for more information



ICAO NAME COUNTRY WIND Kt GUST Kt VIS m TEMP/DEW C BARO METAR
MBGT 7 0 9999 29/23 88.71 MBGT 161200Z 11007KT 9999 SCT018 SCT045 29/23 Q3004
SLPO Potosi Bolivia 3 0 9999 2/1 30.74 SLPO 161200Z 24003KT 9999 SCT070 BKN200 02/01 Q1041
SLLP La Paz / Alto Bolivia 7 0 9999 4/1 30.68 SLLP 161200Z 05007KT 9999 FEW013 BKN070 04/01 Q1039
SPHY Andahuayla Peru 0 0 7000 7/-1 30.62 SPHY 161200Z /////KT 7000 SCT012 OVC040 07/M01 Q1037 RMK TNM-1.3 BIRD HAZARD RWY03/21 PP000
SCAP 6 0 9999 0/-2 30.62 SCAP 161200Z AUTO 10006KT 9999 ////// 00/M02 Q1037

Show more